createdAt,value
2023-01-12T00:02:01.541Z,97525.09
2023-01-12T00:04:30.824Z,97515.22
2023-01-12T00:06:58.247Z,97513.34
2023-01-12T00:09:25.046Z,97512.63
2023-01-12T00:11:52.027Z,97510.84
2023-01-12T00:14:18.870Z,97504.81
2023-01-12T00:16:45.945Z,97518.47
2023-01-12T00:19:17.501Z,97511.84
2023-01-12T00:21:48.685Z,97527.94
2023-01-12T00:24:16.764Z,97530.28
2023-01-12T00:26:43.926Z,97540.28
2023-01-12T00:29:10.662Z,97553.59
2023-01-12T00:31:37.483Z,97549.56
2023-01-12T00:34:04.505Z,97553.84
2023-01-12T00:36:31.274Z,97549.91
2023-01-12T00:39:00.455Z,97543.94
2023-01-12T00:41:45.832Z,97538.66
2023-01-12T00:44:30.986Z,97535.84
2023-01-12T00:46:57.736Z,97544.06
2023-01-12T00:49:24.787Z,97548.41
2023-01-12T00:51:51.369Z,97546.50
2023-01-12T00:54:24.550Z,97549.25
2023-01-12T00:56:56.874Z,97535.25
2023-01-12T00:59:27.011Z,97537.75
2023-01-12T01:01:57.252Z,97536.53
2023-01-12T01:04:24.309Z,97540.63
2023-01-12T01:06:51.281Z,97549.25
2023-01-12T01:09:20.183Z,97548.41
2023-01-12T01:11:47.102Z,97546.50
2023-01-12T01:14:14.096Z,97549.78
2023-01-12T01:16:40.773Z,97544.25
2023-01-12T01:19:07.791Z,97547.75
2023-01-12T01:21:34.834Z,97542.38
2023-01-12T01:24:02.051Z,97541.66
2023-01-12T01:26:31.123Z,97540.88
2023-01-12T01:28:58.586Z,97540.03
2023-01-12T01:31:26.534Z,97537.19
2023-01-12T01:33:53.924Z,97539.31
2023-01-12T01:36:21.310Z,97533.84
2023-01-12T01:38:48.983Z,97525.69
2023-01-12T01:41:17.738Z,97519.75
2023-01-12T01:44:04.480Z,97526.78
2023-01-12T01:46:37.519Z,97538.28
2023-01-12T01:49:25.409Z,97536.03
2023-01-12T01:51:54.689Z,97539.38
2023-01-12T01:54:21.743Z,97530.66
2023-01-12T01:56:48.962Z,97523.63
2023-01-12T01:59:19.228Z,97524.44
2023-01-12T02:01:46.542Z,97529.13
2023-01-12T02:04:14.118Z,97521.69
2023-01-12T02:06:44.213Z,97521.03
2023-01-12T02:09:17.362Z,97514.06
2023-01-12T02:12:02.961Z,97514.56
2023-01-12T02:14:52.313Z,97510.53
2023-01-12T02:17:19.175Z,97506.00
2023-01-12T02:20:01.577Z,97511.03
2023-01-12T02:22:48.436Z,97508.19
2023-01-12T02:25:24.834Z,97514.06
2023-01-12T02:27:53.931Z,97508.44
2023-01-12T02:30:26.722Z,97512.03
2023-01-12T02:32:53.565Z,97509.09
2023-01-12T02:35:23.395Z,97511.88
2023-01-12T02:38:10.426Z,97520.81
2023-01-12T02:40:42.137Z,97523.69
2023-01-12T02:43:18.260Z,97510.16
2023-01-12T02:46:11.932Z,97505.97
2023-01-12T02:48:40.892Z,97511.69
2023-01-12T02:51:14.282Z,97512.50
2023-01-12T02:53:52.638Z,97521.91
2023-01-12T02:56:24.897Z,97521.25
2023-01-12T02:58:54.851Z,97509.03
2023-01-12T03:01:22.888Z,97510.69
2023-01-12T03:03:51.028Z,97504.75
2023-01-12T03:06:17.974Z,97499.56
2023-01-12T03:08:46.259Z,97503.16
2023-01-12T03:11:15.010Z,97507.59
2023-01-12T03:13:45.184Z,97510.38
2023-01-12T03:16:16.271Z,97510.38
2023-01-12T03:19:01.972Z,97510.53
2023-01-12T03:22:01.573Z,97512.19
2023-01-12T03:24:30.807Z,97506.16
2023-01-12T03:27:02.731Z,97506.44
2023-01-12T03:29:33.540Z,97504.56
2023-01-12T03:32:00.593Z,97500.13
2023-01-12T03:34:28.332Z,97499.13
2023-01-12T03:36:55.428Z,97505.00
2023-01-12T03:39:43.727Z,97504.41
2023-01-12T03:42:13.877Z,97500.91
2023-01-12T03:44:47.546Z,97504.84
2023-01-12T03:47:20.551Z,97504.91
2023-01-12T03:49:51.179Z,97496.59
2023-01-12T03:52:19.197Z,97501.47
2023-01-12T03:54:47.009Z,97499.03
2023-01-12T03:57:14.312Z,97494.00
2023-01-12T03:59:42.044Z,97498.31
2023-01-12T04:02:12.319Z,97495.63
2023-01-12T04:04:39.277Z,97493.44
2023-01-12T04:07:07.212Z,97505.19
2023-01-12T04:09:34.391Z,97502.81
2023-01-12T04:12:10.422Z,97506.50
2023-01-12T04:14:41.929Z,97511.69
2023-01-12T04:17:09.948Z,97514.44
2023-01-12T04:19:36.689Z,97518.72
2023-01-12T04:22:22.537Z,97515.22
2023-01-12T04:24:49.468Z,97513.59
2023-01-12T04:27:16.737Z,97524.50
2023-01-12T04:29:43.630Z,97519.91
2023-01-12T04:32:10.652Z,97519.56
2023-01-12T04:34:40.153Z,97521.59
2023-01-12T04:37:06.899Z,97514.38
2023-01-12T04:39:33.751Z,97522.56
2023-01-12T04:42:00.447Z,97523.56
2023-01-12T04:44:27.080Z,97526.06
2023-01-12T04:46:56.838Z,97510.69
2023-01-12T04:49:23.469Z,97522.88
2023-01-12T04:51:50.100Z,97522.56
2023-01-12T04:54:17.007Z,97524.94
2023-01-12T04:56:44.051Z,97525.19
2023-01-12T04:59:11.159Z,97530.59
2023-01-12T05:01:39.322Z,97534.19
2023-01-12T05:04:07.993Z,97533.59
2023-01-12T05:06:35.101Z,97530.41
2023-01-12T05:09:20.484Z,97537.13
2023-01-12T05:11:47.208Z,97547.34
2023-01-12T05:14:14.073Z,97543.75
2023-01-12T05:16:43.041Z,97535.44
2023-01-12T05:19:21.478Z,97546.56
2023-01-12T05:21:48.053Z,97543.06
2023-01-12T05:24:15.130Z,97547.34
2023-01-12T05:26:41.745Z,97543.97
2023-01-12T05:29:09.079Z,97547.66
2023-01-12T05:31:36.067Z,97541.53
2023-01-12T05:34:02.717Z,97552.69
2023-01-12T05:36:32.581Z,97550.94
2023-01-12T05:39:00.080Z,97547.66
2023-01-12T05:41:27.170Z,97546.72
2023-01-12T05:43:55.030Z,97556.13
2023-01-12T05:46:23.373Z,97557.88
2023-01-12T05:48:50.945Z,97553.00
2023-01-12T05:51:18.256Z,97554.84
2023-01-12T05:53:45.216Z,97554.69
2023-01-12T05:56:31.181Z,97564.47
2023-01-12T05:58:59.492Z,97564.56
2023-01-12T06:01:26.736Z,97558.59
2023-01-12T06:03:54.809Z,97561.19
2023-01-12T06:06:22.649Z,97562.78
2023-01-12T06:08:52.131Z,97561.88
2023-01-12T06:11:38.217Z,97570.06
2023-01-12T06:14:05.363Z,97569.38
2023-01-12T06:16:32.381Z,97562.50
2023-01-12T06:18:58.942Z,97572.19
2023-01-12T06:21:25.733Z,97568.53
2023-01-12T06:23:52.396Z,97566.91
2023-01-12T06:26:19.008Z,97569.06
2023-01-12T06:28:45.587Z,97579.06
2023-01-12T06:31:13.531Z,97573.19
2023-01-12T06:33:40.222Z,97568.81
2023-01-12T06:36:07.205Z,97576.41
2023-01-12T06:38:34.401Z,97568.53
2023-01-12T06:41:02.097Z,97577.94
2023-01-12T06:43:29.199Z,97583.81
2023-01-12T06:45:55.853Z,97584.00
2023-01-12T06:48:25.831Z,97576.22
2023-01-12T06:50:55.546Z,97573.09
2023-01-12T06:53:22.135Z,97581.66
2023-01-12T06:55:51.302Z,97579.88
2023-01-12T06:58:18.132Z,97587.53
2023-01-12T07:00:44.829Z,97586.75
2023-01-12T07:03:16.621Z,97590.88
2023-01-12T07:05:43.501Z,97593.31
2023-01-12T07:08:11.396Z,97596.69
2023-01-12T07:10:38.045Z,97599.59
2023-01-12T07:13:04.779Z,97599.59
2023-01-12T07:15:31.348Z,97601.50
2023-01-12T07:17:58.292Z,97599.72
2023-01-12T07:20:25.392Z,97604.09
2023-01-12T07:22:52.178Z,97604.09
2023-01-12T07:25:18.936Z,97603.09
2023-01-12T07:27:50.082Z,97601.25
2023-01-12T07:30:16.811Z,97600.94
2023-01-12T07:32:43.678Z,97609.66
2023-01-12T07:35:10.591Z,97613.19
2023-01-12T07:37:37.793Z,97615.94
2023-01-12T07:40:04.992Z,97621.19
2023-01-12T07:42:33.743Z,97626.47
2023-01-12T07:45:03.487Z,97625.84
2023-01-12T07:47:30.453Z,97623.25
2023-01-12T07:49:57.093Z,97624.19
2023-01-12T07:52:26.543Z,97628.53
2023-01-12T07:54:53.532Z,97630.06
2023-01-12T07:57:20.204Z,97630.91
2023-01-12T07:59:46.816Z,97642.97
2023-01-12T08:02:18.551Z,97639.16
2023-01-12T08:04:45.911Z,97635.50
2023-01-12T08:07:12.949Z,97650.06
2023-01-12T08:09:43.023Z,97644.19
2023-01-12T08:12:16.811Z,97646.03
2023-01-12T08:14:43.829Z,97659.75
2023-01-12T08:17:18.788Z,97655.59
2023-01-12T08:19:51.282Z,97661.22
2023-01-12T08:22:20.785Z,97663.03
2023-01-12T08:24:51.296Z,97662.53
2023-01-12T08:27:19.198Z,97662.44
2023-01-12T08:29:48.407Z,97658.22
2023-01-12T08:32:18.178Z,97664.19
2023-01-12T08:34:47.326Z,97665.13
2023-01-12T08:37:19.053Z,97657.50
2023-01-12T08:39:46.348Z,97656.41
2023-01-12T08:42:13.241Z,97662.59
2023-01-12T08:44:40.555Z,97667.78
2023-01-12T08:47:15.420Z,97664.19
2023-01-12T08:49:42.028Z,97660.38
2023-01-12T08:52:08.773Z,97668.25
2023-01-12T08:54:36.145Z,97654.41
2023-01-12T08:57:02.963Z,97660.28
2023-01-12T08:59:32.912Z,97664.50
2023-01-12T09:01:59.974Z,97668.63
2023-01-12T09:04:26.827Z,97652.94
2023-01-12T09:06:53.623Z,97657.31
2023-01-12T09:09:20.493Z,97655.47
2023-01-12T09:11:49.140Z,97656.06
2023-01-12T09:14:16.356Z,97657.69
2023-01-12T09:16:43.557Z,97658.38
2023-01-12T09:19:10.586Z,97653.31
2023-01-12T09:21:38.635Z,97649.06
2023-01-12T09:24:09.315Z,97647.97
2023-01-12T09:30:24.690Z,97646.13
2023-01-12T09:32:52.108Z,97652.50
2023-01-12T09:35:20.183Z,97640.56
2023-01-12T09:37:46.995Z,97644.78
2023-01-12T09:40:15.478Z,97642.94
2023-01-12T09:43:06.446Z,97638.56
2023-01-12T09:45:51.610Z,97641.78
2023-01-12T09:48:21.464Z,97634.84
2023-01-12T09:50:52.284Z,97634.75
2023-01-12T09:53:19.273Z,97634.59
2023-01-12T09:55:50.407Z,97633.91
2023-01-12T09:58:17.238Z,97637.28
2023-01-12T10:00:43.949Z,97636.50
2023-01-12T10:03:10.618Z,97632.13
2023-01-12T10:05:44.027Z,97624.59
2023-01-12T10:08:31.483Z,97630.47
2023-01-12T10:11:17.115Z,97627.88
2023-01-12T10:14:04.241Z,97625.19
2023-01-12T10:16:40.198Z,97628.41
2023-01-12T10:19:27.219Z,97621.88
2023-01-12T10:21:54.407Z,97616.59
2023-01-12T10:24:22.602Z,97620.03
2023-01-12T10:26:52.307Z,97615.69
2023-01-12T10:29:21.503Z,97617.19
2023-01-12T10:31:48.365Z,97605.97
2023-01-12T10:34:15.395Z,97609.22
2023-01-12T10:36:47.397Z,97614.34
2023-01-12T10:39:31.530Z,97606.13
2023-01-12T10:42:36.639Z,97606.97
2023-01-12T10:45:14.716Z,97617.34
2023-01-12T10:47:42.033Z,97609.50
2023-01-12T10:50:21.125Z,97609.66
2023-01-12T10:52:48.907Z,97602.94
2023-01-12T10:55:19.899Z,97602.00
2023-01-12T10:57:48.649Z,97596.22
2023-01-12T11:00:20.883Z,97596.06
2023-01-12T11:02:47.752Z,97595.31
2023-01-12T11:05:30.303Z,97594.38
2023-01-12T11:07:58.178Z,97592.72
2023-01-12T11:10:27.965Z,97600.25
2023-01-12T11:12:59.349Z,97595.88
2023-01-12T11:15:26.572Z,97591.63
2023-01-12T11:17:59.304Z,97592.72
2023-01-12T11:20:32.144Z,97590.38
2023-01-12T11:23:03.048Z,97590.44
2023-01-12T11:25:33.125Z,97589.34
2023-01-12T11:28:02.947Z,97589.53
2023-01-12T11:30:37.265Z,97594.78
2023-01-12T11:33:22.936Z,97588.50
2023-01-12T11:36:02.183Z,97592.59
2023-01-12T11:38:44.221Z,97592.72
2023-01-12T11:41:19.842Z,97590.69
2023-01-12T11:43:59.271Z,97589.84
2023-01-12T11:46:36.100Z,97587.34
2023-01-12T11:49:18.664Z,97584.13
2023-01-12T11:51:48.613Z,97586.84
2023-01-12T11:54:17.582Z,97593.13
2023-01-12T11:56:47.172Z,97583.66
2023-01-12T11:59:18.891Z,97591.34
2023-01-12T12:01:45.575Z,97584.50
2023-01-12T12:04:26.687Z,97584.41
2023-01-12T12:06:56.400Z,97590.44
2023-01-12T12:09:43.414Z,97575.25
2023-01-12T12:12:20.716Z,97595.13
2023-01-12T12:15:07.782Z,97589.84
2023-01-12T12:17:43.440Z,97590.69
2023-01-12T12:20:10.836Z,97589.25
2023-01-12T12:22:46.972Z,97598.13
2023-01-12T12:25:20.178Z,97592.19
2023-01-12T12:28:05.391Z,97582.47
2023-01-12T12:30:38.368Z,97583.59
2023-01-12T12:33:16.810Z,97576.75
2023-01-12T12:35:53.095Z,97589.47
2023-01-12T12:38:23.089Z,97576.59
2023-01-12T12:41:11.533Z,97574.66
2023-01-12T12:44:03.345Z,97577.94
2023-01-12T12:46:44.023Z,97575.41
2023-01-12T12:49:18.170Z,97575.19
2023-01-12T12:51:45.752Z,97576.06
2023-01-12T12:54:18.867Z,97582.16
2023-01-12T12:56:46.359Z,97582.81
2023-01-12T12:59:54.644Z,97585.41
2023-01-12T13:02:37.830Z,97580.28
2023-01-12T13:05:07.269Z,97581.13
2023-01-12T13:07:35.679Z,97572.66
2023-01-12T13:10:23.960Z,97579.59
2023-01-12T13:13:04.597Z,97582.38
2023-01-12T13:27:36.035Z,97574.13
2023-01-12T13:30:22.798Z,97580.28
2023-01-12T13:33:09.657Z,97578.75
2023-01-12T13:35:38.938Z,97582.25
2023-01-12T13:38:43.219Z,97582.25
2023-01-12T13:47:57.261Z,97596.31
2023-01-12T13:53:47.431Z,97597.34
2023-01-12T13:57:02.835Z,97595.66
2023-01-12T14:03:33.473Z,97586.28
2023-01-12T14:06:55.193Z,97598.34
2023-01-12T14:10:19.247Z,97599.31
2023-01-12T14:13:33.578Z,97607.34
2023-01-12T14:22:43.150Z,97613.47
2023-01-12T14:28:46.457Z,97612.19
2023-01-12T14:31:34.110Z,97609.66
2023-01-12T14:34:34.298Z,97621.56
2023-01-12T14:36:59.821Z,97612.84
2023-01-12T14:39:27.965Z,97622.50
2023-01-12T14:42:14.417Z,97616.28
2023-01-12T14:45:10.521Z,97612.84
2023-01-12T14:47:37.887Z,97619.75
2023-01-12T14:50:23.356Z,97615.06
2023-01-12T14:53:21.634Z,97616.06
2023-01-12T14:55:53.483Z,97625.94
2023-01-12T14:58:21.923Z,97632.13
2023-01-12T15:01:12.276Z,97623.41
2023-01-12T15:03:43.816Z,97631.97
2023-01-12T15:06:14.553Z,97630.16
2023-01-12T15:08:52.101Z,97618.19
2023-01-12T15:17:45.449Z,97645.03
2023-01-12T15:24:48.182Z,97646.03
2023-01-12T15:26:58.851Z,97647.84
2023-01-12T15:29:36.238Z,97653.81
2023-01-12T18:04:49.416Z,97692.84
2023-01-12T18:11:46.931Z,97693.81
2023-01-12T18:39:37.318Z,97705.97
2023-01-12T18:42:22.488Z,97699.00
2023-01-12T18:44:49.457Z,97700.84
2023-01-12T18:47:38.373Z,97707.72
2023-01-12T18:50:25.965Z,97705.19
2023-01-12T18:57:35.468Z,97696.19
2023-01-12T19:00:00.697Z,97702.16
2023-01-12T19:06:28.295Z,97701.47
2023-01-12T19:19:35.397Z,97711.00
2023-01-12T19:28:48.079Z,97717.03
2023-01-12T19:31:17.608Z,97716.25
2023-01-12T19:33:59.965Z,97716.25
2023-01-12T19:36:26.636Z,97718.81
2023-01-12T19:38:54.224Z,97718.72
2023-01-12T19:41:39.482Z,97720.25
2023-01-12T19:44:06.732Z,97720.41
2023-01-12T19:46:33.649Z,97725.91
2023-01-12T19:49:01.569Z,97715.50
2023-01-12T19:51:28.335Z,97723.38
2023-01-12T19:53:55.610Z,97729.00
2023-01-12T19:56:22.680Z,97733.47
2023-01-12T19:58:55.287Z,97732.09
2023-01-12T20:01:23.778Z,97739.06
2023-01-12T20:03:50.939Z,97736.47
2023-01-12T20:06:17.979Z,97735.06
2023-01-12T20:08:55.458Z,97742.91
2023-01-12T20:11:22.808Z,97739.56
2023-01-12T20:13:49.957Z,97736.13
2023-01-12T20:16:26.036Z,97745.75
2023-01-12T20:18:56.749Z,97743.94
2023-01-12T20:21:23.892Z,97743.94
2023-01-12T20:23:53.819Z,97741.94
2023-01-12T20:26:21.895Z,97738.50
2023-01-12T20:28:48.621Z,97749.25
2023-01-12T20:31:16.330Z,97737.97
2023-01-12T20:33:43.551Z,97744.53
2023-01-12T20:36:11.761Z,97748.56
2023-01-12T20:38:39.164Z,97739.16
2023-01-12T20:41:06.111Z,97740.69
2023-01-12T20:43:34.295Z,97738.03
2023-01-12T20:46:02.033Z,97745.75
2023-01-12T20:48:31.708Z,97745.88
2023-01-12T20:50:58.868Z,97739.03
2023-01-12T20:53:27.150Z,97738.88
2023-01-12T20:55:53.847Z,97734.66
2023-01-12T20:58:20.654Z,97727.66
2023-01-12T21:00:47.639Z,97728.25
2023-01-12T21:03:14.594Z,97727.97
2023-01-12T21:05:45.018Z,97727.47
2023-01-12T21:08:11.889Z,97735.38
2023-01-12T21:10:39.593Z,97732.16
2023-01-12T21:13:06.802Z,97735.50
2023-01-12T21:15:34.633Z,97737.19
2023-01-12T21:18:01.695Z,97737.72
2023-01-12T21:20:28.590Z,97737.44
2023-01-12T21:22:55.529Z,97743.31
2023-01-12T21:25:26.348Z,97737.03
2023-01-12T21:27:53.488Z,97742.22
2023-01-12T21:30:22.079Z,97736.28
2023-01-12T21:32:49.060Z,97734.59
2023-01-12T21:35:16.390Z,97744.44
2023-01-12T21:37:43.256Z,97742.75
2023-01-12T21:40:10.757Z,97739.38
2023-01-12T21:42:56.149Z,97736.72
2023-01-12T21:45:23.948Z,97732.31
2023-01-12T21:47:51.061Z,97740.97
2023-01-12T21:50:17.895Z,97739.31
2023-01-12T21:52:45.222Z,97735.78
2023-01-12T21:55:13.730Z,97735.66
2023-01-12T21:57:41.995Z,97738.88
2023-01-12T22:00:09.154Z,97739.78
2023-01-12T22:02:36.139Z,97733.84
2023-01-12T22:05:03.693Z,97738.94
2023-01-12T22:07:30.711Z,97728.34
2023-01-12T22:10:17.425Z,97727.44
2023-01-12T22:12:46.064Z,97722.09
2023-01-12T22:15:14.698Z,97735.06
2023-01-12T22:17:41.427Z,97721.31
2023-01-12T22:20:09.154Z,97724.84
2023-01-12T22:22:38.930Z,97716.13
2023-01-12T22:25:10.162Z,97717.78
2023-01-12T22:27:37.351Z,97712.47
2023-01-12T22:30:05.734Z,97715.84
2023-01-12T22:32:32.834Z,97703.84
2023-01-12T22:34:59.602Z,97703.75
2023-01-12T22:37:27.025Z,97710.69
2023-01-12T22:39:54.173Z,97708.41
2023-01-12T22:42:21.476Z,97707.59
2023-01-12T22:44:48.448Z,97707.72
2023-01-12T22:47:15.635Z,97709.50
2023-01-12T22:49:42.681Z,97710.38
2023-01-12T22:52:10.668Z,97701.84
2023-01-12T22:54:38.911Z,97704.34
2023-01-12T22:57:07.063Z,97703.28
2023-01-12T22:59:33.781Z,97700.69
2023-01-12T23:02:20.771Z,97692.91
2023-01-12T23:04:47.800Z,97695.63
2023-01-12T23:07:22.376Z,97699.94
2023-01-12T23:10:40.152Z,97695.22
2023-01-12T23:13:17.302Z,97694.91
2023-01-12T23:15:46.081Z,97693.69
2023-01-12T23:18:13.905Z,97699.56
2023-01-12T23:20:42.919Z,97697.28
2023-01-12T23:23:11.466Z,97697.28
2023-01-12T23:25:38.460Z,97691.53
2023-01-12T23:28:06.509Z,97690.16
2023-01-12T23:30:33.600Z,97685.75
2023-01-12T23:33:01.605Z,97684.97
2023-01-12T23:35:28.517Z,97695.34
2023-01-12T23:37:58.707Z,97697.94
2023-01-12T23:40:25.929Z,97686.63
2023-01-12T23:42:52.816Z,97699.63
2023-01-12T23:45:19.752Z,97687.41
2023-01-12T23:47:47.586Z,97686.50
2023-01-12T23:50:32.848Z,97699.31
2023-01-12T23:52:59.601Z,97694.00
2023-01-12T23:55:39.676Z,97692.22
2023-01-12T23:58:08.401Z,97701.00
